Time;durP1;ratioP1;P1;durP2;ratioP2;P2;SDS_P1;SDS_P2;PMS_P1;PMS_P2;Temp;Humidity;BMP_temperature;BMP_pressure;BME280_temperature;BME280_humidity;BME280_pressure;Samples;Min_cycle;Max_cycle;Signal;HPM_P1;HPM_P2
2023/04/25 00:01:40;;;;;;;12.47;10.70;;;;;;;13.96;62.73;99017.69;5013164;28;20207;-62
2023/04/25 00:04:11;;;;;;;13.07;11.37;;;;;;;13.95;62.78;99018.56;5010156;28;20211;-59
2023/04/25 00:06:40;;;;;;;13.27;11.13;;;;;;;13.90;63.05;99024.84;5011497;28;20203;-62
2023/04/25 00:09:09;;;;;;;12.40;10.80;;;;;;;13.87;63.25;99022.38;5012225;28;20670;-61
2023/04/25 00:11:38;;;;;;;13.73;11.23;;;;;;;13.80;63.32;99016.63;5011918;28;20255;-60
2023/04/25 00:14:06;;;;;;;14.60;12.03;;;;;;;13.73;63.88;99015.19;5009527;28;20677;-61
2023/04/25 00:16:35;;;;;;;13.30;11.13;;;;;;;13.66;64.21;99009.44;5007973;28;20226;-60
2023/04/25 00:19:04;;;;;;;12.37;11.07;;;;;;;13.63;64.33;99017.31;5011680;28;20207;-61
2023/04/25 00:21:33;;;;;;;13.50;12.10;;;;;;;13.61;64.49;99018.28;5008711;28;20261;-59
2023/04/25 00:24:01;;;;;;;12.90;10.73;;;;;;;13.61;64.22;99019.13;5010854;28;20235;-60
2023/04/25 00:26:30;;;;;;;13.80;11.57;;;;;;;13.65;64.39;99019.84;5010723;28;20249;-66
2023/04/25 00:28:58;;;;;;;12.20;10.90;;;;;;;13.66;64.36;99009.44;5009266;28;20622;-62
2023/04/25 00:31:26;;;;;;;14.23;11.50;;;;;;;13.70;64.67;99012.75;5011730;28;20579;-65
2023/04/25 00:33:54;;;;;;;17.33;12.43;;;;;;;13.70;64.61;99016.16;5012104;28;20211;-63
2023/04/25 00:36:22;;;;;;;13.53;10.80;;;;;;;13.63;64.93;99019.91;5012746;28;20215;-61
2023/04/25 00:38:51;;;;;;;13.53;12.07;;;;;;;13.60;64.93;99020.03;5011425;28;20218;-62
2023/04/25 00:41:20;;;;;;;13.77;11.70;;;;;;;13.57;65.49;99027.06;5013622;28;20230;-61
2023/04/25 00:43:49;;;;;;;14.63;12.50;;;;;;;13.49;65.87;99024.78;5015065;28;20258;-61
2023/04/25 00:46:17;;;;;;;14.03;11.60;;;;;;;13.43;66.00;99015.50;5009800;28;20203;-62
2023/04/25 00:48:45;;;;;;;14.27;12.67;;;;;;;13.45;66.27;99016.31;5012241;28;20649;-64
2023/04/25 00:51:16;;;;;;;15.03;12.20;;;;;;;13.49;66.00;99020.47;5011122;28;20239;-61
2023/04/25 00:53:45;;;;;;;15.57;13.07;;;;;;;13.48;66.73;99013.59;5012996;28;20203;-61
2023/04/25 00:56:15;;;;;;;14.87;12.57;;;;;;;13.44;66.31;99021.53;5012263;28;20207;-64
2023/04/25 00:58:43;;;;;;;15.10;13.03;;;;;;;13.37;66.91;99026.13;5018394;28;20202;-62
2023/04/25 01:01:11;;;;;;;14.50;12.80;;;;;;;13.34;67.71;99025.41;5011386;28;20199;-61
2023/04/25 01:03:41;;;;;;;15.40;12.60;;;;;;;13.29;67.53;99038.50;5012230;28;20207;-63
2023/04/25 01:06:10;;;;;;;13.97;12.50;;;;;;;13.25;67.88;99024.00;5010906;28;20199;-61
2023/04/25 01:08:39;;;;;;;15.20;12.33;;;;;;;13.20;68.56;99024.16;5010205;28;20249;-62
2023/04/25 01:11:07;;;;;;;14.43;12.97;;;;;;;13.17;68.69;99028.59;5011047;28;20211;-61
2023/04/25 01:13:37;;;;;;;15.70;12.67;;;;;;;13.10;69.39;99022.81;5010343;28;20211;-61
2023/04/25 01:16:05;;;;;;;16.27;13.47;;;;;;;13.09;69.67;99028.06;5002486;28;20682;-66
2023/04/25 01:18:33;;;;;;;13.70;12.27;;;;;;;13.04;70.00;99029.09;5008864;28;20207;-63
2023/04/25 01:21:10;;;;;;;14.67;13.23;;;;;;;13.06;69.90;99021.25;5011494;28;20211;-60
2023/04/25 01:23:39;;;;;;;15.40;13.63;;;;;;;13.07;70.15;99022.97;5009711;28;20266;-59
2023/04/25 01:26:09;;;;;;;14.73;12.60;;;;;;;13.09;70.52;99022.88;5005956;28;20195;-67
2023/04/25 01:28:37;;;;;;;13.87;12.43;;;;;;;13.09;70.62;99026.31;5009501;28;20663;-63
2023/04/25 01:31:05;;;;;;;14.30;12.13;;;;;;;13.06;70.94;99024.69;5013719;28;20594;-61
2023/04/25 01:33:33;;;;;;;12.97;11.63;;;;;;;13.04;71.14;99021.31;5010597;28;20203;-60
2023/04/25 01:36:01;;;;;;;13.07;11.37;;;;;;;12.99;71.54;99018.03;5009722;28;20242;-59
2023/04/25 01:38:31;;;;;;;12.03;10.47;;;;;;;13.03;71.40;99026.53;5011208;28;20211;-61
2023/04/25 01:40:59;;;;;;;14.37;11.00;;;;;;;13.00;71.49;99029.25;5010294;28;20196;-64
2023/04/25 01:43:27;;;;;;;15.80;11.33;;;;;;;12.99;71.50;99025.81;5006315;28;20199;-63
2023/04/25 01:45:56;;;;;;;14.50;11.07;;;;;;;12.97;71.94;99022.44;5008703;28;20227;-61
2023/04/25 01:48:24;;;;;;;12.47;10.73;;;;;;;13.00;72.03;99024.94;5009499;28;20673;-60
2023/04/25 01:50:52;;;;;;;13.37;10.40;;;;;;;13.04;72.02;99016.16;5009163;28;20207;-60
2023/04/25 01:53:19;;;;;;;11.70;10.53;;;;;;;13.11;71.91;99015.91;5007220;28;20207;-59
2023/04/25 01:55:49;;;;;;;12.50;11.07;;;;;;;13.16;71.52;99022.59;5010398;28;20204;-59
2023/04/25 01:58:17;;;;;;;13.93;11.33;;;;;;;13.13;71.41;99011.53;5010086;28;20211;-60
2023/04/25 02:00:44;;;;;;;14.50;11.90;;;;;;;13.15;71.75;99020.06;5009264;28;20207;-62
2023/04/25 02:03:12;;;;;;;12.53;11.03;;;;;;;13.13;71.63;99016.69;5009163;28;20639;-61
2023/04/25 02:05:41;;;;;;;11.30;10.10;;;;;;;13.10;71.68;99017.66;5008063;28;20210;-61
2023/04/25 02:08:10;;;;;;;12.27;10.97;;;;;;;13.10;71.46;99027.16;5007892;28;20204;-60
2023/04/25 02:10:38;;;;;;;12.33;10.53;;;;;;;13.06;72.30;99022.09;5010013;28;20204;-61
2023/04/25 02:13:07;;;;;;;14.13;11.37;;;;;;;12.97;72.47;99019.03;5010515;28;20219;-61
2023/04/25 02:15:35;;;;;;;12.70;11.40;;;;;;;12.93;72.71;99020.88;5010496;28;20212;-61
2023/04/25 02:18:04;;;;;;;12.90;11.43;;;;;;;12.87;73.08;99018.53;5011450;28;20571;-60
2023/04/25 02:20:31;;;;;;;11.90;10.70;;;;;;;12.86;73.12;99016.84;5011795;28;20211;-60
2023/04/25 02:22:59;;;;;;;11.70;10.37;;;;;;;12.85;72.90;99012.56;5010845;28;20654;-60
2023/04/25 02:25:28;;;;;;;10.97;9.87;;;;;;;12.84;73.45;99005.69;5009638;28;20595;-60
2023/04/25 02:27:56;;;;;;;15.97;10.77;;;;;;;12.79;73.45;99003.28;5009857;28;20298;-60
2023/04/25 02:30:25;;;;;;;11.07;9.93;;;;;;;12.80;73.44;99010.16;5009694;28;20212;-63
2023/04/25 02:32:53;;;;;;;11.70;10.50;;;;;;;12.77;73.12;99002.50;5008003;28;20215;-61
2023/04/25 02:35:22;;;;;;;10.73;9.37;;;;;;;12.76;73.40;99005.16;5008184;28;20200;-64
2023/04/25 02:37:50;;;;;;;10.93;9.63;;;;;;;12.69;73.84;99006.28;5007677;28;20263;-61
2023/04/25 02:40:17;;;;;;;10.30;9.20;;;;;;;12.64;73.51;99010.78;5008604;28;20203;-61
2023/04/25 02:42:46;;;;;;;12.80;9.77;;;;;;;12.50;73.94;98996.59;5010211;28;20233;-61
2023/04/25 02:45:14;;;;;;;13.17;10.00;;;;;;;12.51;74.20;99006.03;5008332;28;20550;-64
2023/04/25 02:47:44;;;;;;;9.17;8.27;;;;;;;12.49;74.32;99010.44;5009520;28;20654;-63
2023/04/25 02:50:12;;;;;;;10.40;8.57;;;;;;;12.47;74.54;99017.38;5008835;28;20577;-63
2023/04/25 02:52:40;;;;;;;12.23;9.13;;;;;;;12.47;74.24;99001.88;5008178;28;20705;-64
2023/04/25 02:55:10;;;;;;;10.60;9.20;;;;;;;12.46;74.32;99000.22;5008802;28;20258;-62
2023/04/25 02:57:38;;;;;;;11.83;8.50;;;;;;;12.47;74.30;99007.06;5009115;28;20199;-63
2023/04/25 03:00:07;;;;;;;10.33;8.97;;;;;;;12.44;74.16;99002.00;5007383;28;20717;-63
2023/04/25 03:02:35;;;;;;;10.87;8.77;;;;;;;12.38;74.15;99002.22;5009661;28;20203;-65
2023/04/25 03:05:05;;;;;;;10.47;9.13;;;;;;;12.39;74.29;98997.91;5009856;28;20622;-69
2023/04/25 03:07:33;;;;;;;10.37;8.30;;;;;;;12.39;74.62;99008.22;5009364;28;20207;-64
2023/04/25 03:10:02;;;;;;;9.30;8.30;;;;;;;12.38;74.47;99002.22;5007096;28;20659;-64
2023/04/25 03:12:30;;;;;;;11.00;8.53;;;;;;;12.35;74.49;99004.06;5008029;28;20612;-63
2023/04/25 03:14:57;;;;;;;10.47;9.37;;;;;;;12.33;74.55;98994.66;5009024;28;20215;-64
2023/04/25 03:17:25;;;;;;;9.50;8.50;;;;;;;12.31;74.66;98999.00;5009189;28;20203;-63
2023/04/25 03:19:53;;;;;;;13.50;7.93;;;;;;;12.30;74.79;99007.66;5008539;28;20200;-64
2023/04/25 03:22:23;;;;;;;9.63;8.33;;;;;;;12.27;74.88;99004.34;5009291;28;20815;-63
2023/04/25 03:24:51;;;;;;;10.07;8.03;;;;;;;12.25;75.09;99006.13;5008197;28;20265;-64
2023/04/25 03:27:19;;;;;;;10.97;8.60;;;;;;;12.21;75.03;99004.56;5008337;28;20569;-65
2023/04/25 03:29:47;;;;;;;8.77;7.90;;;;;;;12.22;75.18;99006.22;5007197;28;20215;-64
2023/04/25 03:32:15;;;;;;;9.37;8.40;;;;;;;12.27;75.23;99009.50;5007963;28;20268;-64
2023/04/25 03:34:43;;;;;;;10.70;8.87;;;;;;;12.30;74.98;99009.41;5009664;28;20208;-63
2023/04/25 03:37:11;;;;;;;9.27;7.73;;;;;;;12.31;74.95;99013.66;5008774;28;20207;-62
2023/04/25 03:39:40;;;;;;;9.03;7.67;;;;;;;12.33;74.89;99014.44;5007787;28;20282;-65
2023/04/25 03:42:08;;;;;;;8.97;7.57;;;;;;;12.33;74.77;99015.31;5009183;28;20721;-63
2023/04/25 03:44:36;;;;;;;10.13;8.00;;;;;;;12.38;74.49;99019.47;5006767;28;20226;-64
2023/04/25 03:47:04;;;;;;;8.60;7.70;;;;;;;12.37;74.57;99021.22;5008044;28;20238;-62
2023/04/25 03:49:33;;;;;;;8.63;7.83;;;;;;;12.38;74.62;99022.91;5006687;28;20207;-64
2023/04/25 03:52:01;;;;;;;8.37;7.37;;;;;;;12.41;74.27;99027.97;5000761;28;20698;-62
2023/04/25 03:54:29;;;;;;;9.17;7.63;;;;;;;12.42;74.11;99027.06;5007986;28;20352;-62
2023/04/25 03:56:59;;;;;;;8.40;7.27;;;;;;;12.40;73.90;99028.00;5008601;28;20203;-64
2023/04/25 03:59:27;;;;;;;9.93;8.30;;;;;;;12.43;74.49;99033.91;5011165;28;20207;-64
2023/04/25 04:01:55;;;;;;;8.37;7.47;;;;;;;12.47;73.90;99027.72;5006271;28;20291;-64
2023/04/25 04:04:23;;;;;;;8.63;7.33;;;;;;;12.44;73.88;99032.16;5009129;28;20620;-63
2023/04/25 04:06:52;;;;;;;7.67;6.20;;;;;;;12.44;73.83;99033.00;5011362;28;20210;-64
2023/04/25 04:09:20;;;;;;;8.20;7.20;;;;;;;12.44;73.94;99038.16;5017028;28;20211;-61
2023/04/25 04:11:48;;;;;;;8.07;7.23;;;;;;;12.43;73.71;99036.47;5011133;28;20203;-65
2023/04/25 04:14:17;;;;;;;7.80;7.00;;;;;;;12.47;73.87;99043.22;5012535;28;20211;-64
2023/04/25 04:16:45;;;;;;;7.57;6.47;;;;;;;12.48;73.47;99034.59;5013572;28;20204;-63
2023/04/25 04:19:13;;;;;;;8.13;6.77;;;;;;;12.52;73.90;99051.69;5011123;28;20607;-66
2023/04/25 04:21:41;;;;;;;8.17;6.60;;;;;;;12.54;73.57;99043.84;5012057;28;20207;-62
2023/04/25 04:24:10;;;;;;;7.90;6.60;;;;;;;12.54;73.53;99042.09;5013227;28;20235;-63
2023/04/25 04:26:38;;;;;;;8.17;6.40;;;;;;;12.53;73.29;99048.19;5008053;28;20207;-63
2023/04/25 04:29:06;;;;;;;9.60;7.13;;;;;;;12.47;73.58;99043.22;5011364;28;20203;-63
2023/04/25 04:31:36;;;;;;;7.30;6.60;;;;;;;12.48;73.53;99041.47;5009093;28;20203;-63
2023/04/25 04:34:04;;;;;;;7.67;6.63;;;;;;;12.44;73.84;99045.06;5000477;28;20225;-62
2023/04/25 04:36:32;;;;;;;7.50;6.70;;;;;;;12.44;73.61;99048.50;5004187;28;20207;-63
2023/04/25 04:39:00;;;;;;;7.67;6.77;;;;;;;12.45;73.79;99045.03;5007795;28;20758;-64
2023/04/25 04:41:28;;;;;;;8.33;6.30;;;;;;;12.47;73.82;99048.38;5006269;28;20219;-63
2023/04/25 04:43:56;;;;;;;7.17;6.47;;;;;;;12.51;73.46;99042.22;5010598;28;20234;-63
2023/04/25 04:46:25;;;;;;;7.00;6.30;;;;;;;12.55;73.89;99054.13;5011382;28;20203;-63
2023/04/25 04:48:56;;;;;;;10.80;6.93;;;;;;;12.50;73.72;99045.69;5010867;28;20285;-65
2023/04/25 04:51:24;;;;;;;9.80;6.60;;;;;;;12.49;74.03;99050.94;5010525;28;20658;-64
2023/04/25 04:53:52;;;;;;;7.83;7.03;;;;;;;12.50;73.91;99055.19;5014920;28;20265;-66
2023/04/25 04:56:23;;;;;;;7.87;6.53;;;;;;;12.51;74.43;99056.88;5004268;28;20215;-64
2023/04/25 04:58:51;;;;;;;7.40;6.50;;;;;;;12.55;74.68;99061.88;5004223;28;20208;-64
2023/04/25 05:01:19;;;;;;;7.73;6.73;;;;;;;12.52;74.42;99059.44;5007798;28;20207;-65
2023/04/25 05:03:47;;;;;;;8.83;6.87;;;;;;;12.49;74.86;99064.69;5014218;28;20719;-64
2023/04/25 05:06:17;;;;;;;8.47;6.93;;;;;;;12.44;74.71;99052.81;5009369;28;20200;-64
2023/04/25 05:08:45;;;;;;;8.10;7.30;;;;;;;12.40;75.49;99061.56;5009669;28;20832;-66
2023/04/25 05:11:13;;;;;;;8.00;7.20;;;;;;;12.36;75.60;99055.66;5008383;28;21392;-62
2023/04/25 05:13:41;;;;;;;10.20;6.93;;;;;;;12.36;76.02;99054.84;5009431;28;20215;-65
2023/04/25 05:16:09;;;;;;;7.60;6.83;;;;;;;12.33;75.56;99055.78;5004803;28;20388;-63
2023/04/25 05:18:37;;;;;;;7.90;7.03;;;;;;;12.28;76.06;99050.78;5007401;28;20203;-68
2023/04/25 05:21:05;;;;;;;8.27;7.47;;;;;;;12.28;76.12;99063.69;5007798;28;20247;-65
2023/04/25 05:23:34;;;;;;;7.60;6.90;;;;;;;12.23;75.91;99057.84;5008819;28;20772;-64
2023/04/25 05:26:02;;;;;;;9.23;7.67;;;;;;;12.17;76.82;99072.69;5008130;28;20211;-65
2023/04/25 05:28:30;;;;;;;7.70;7.00;;;;;;;12.15;76.81;99061.56;5003914;28;20717;-64
2023/04/25 05:30:58;;;;;;;7.67;6.87;;;;;;;12.13;76.48;99068.53;5002523;28;20635;-64
2023/04/25 05:33:26;;;;;;;8.10;7.30;;;;;;;12.11;76.41;99071.16;5004122;28;20215;-66
2023/04/25 05:35:54;;;;;;;8.17;6.87;;;;;;;12.09;76.16;99078.13;4998933;28;20243;-63
2023/04/25 05:38:22;;;;;;;7.20;6.60;;;;;;;12.08;76.78;99076.44;5007833;28;20666;-63
2023/04/25 05:40:51;;;;;;;7.90;7.07;;;;;;;12.12;76.19;99079.78;5004832;28;20250;-64
2023/04/25 05:43:19;;;;;;;7.97;7.17;;;;;;;12.13;76.82;99074.53;5000162;28;20758;-63
2023/04/25 05:45:47;;;;;;;8.53;7.40;;;;;;;12.17;76.70;99072.69;4999424;28;20222;-65
2023/04/25 05:48:15;;;;;;;8.40;6.87;;;;;;;12.10;76.06;99074.63;5004041;28;20214;-63
2023/04/25 05:50:43;;;;;;;7.73;7.03;;;;;;;12.08;76.79;99074.69;5006850;28;20230;-64
2023/04/25 05:53:11;;;;;;;7.33;6.63;;;;;;;12.13;76.80;99077.13;5009955;28;20638;-64
2023/04/25 05:55:39;;;;;;;8.13;7.37;;;;;;;12.11;76.79;99072.91;5003506;28;20274;-64
2023/04/25 05:58:08;;;;;;;8.37;7.57;;;;;;;12.05;76.58;99072.22;5011000;28;20250;-64
2023/04/25 06:00:36;;;;;;;8.50;7.70;;;;;;;11.99;76.62;99079.31;5011426;28;20210;-64
2023/04/25 06:03:04;;;;;;;8.10;7.23;;;;;;;11.96;76.88;99076.84;5010441;28;20254;-63
2023/04/25 06:05:32;;;;;;;10.03;8.10;;;;;;;11.98;77.14;99080.22;5011580;28;20211;-64
2023/04/25 06:08:01;;;;;;;8.30;7.60;;;;;;;11.98;76.56;99091.38;5010137;28;20223;-64
2023/04/25 06:10:28;;;;;;;8.30;7.50;;;;;;;11.93;76.40;99093.28;5005128;28;20266;-64
2023/04/25 06:12:57;;;;;;;8.20;7.50;;;;;;;11.91;77.00;99092.47;5011595;28;20214;-68
2023/04/25 06:15:27;;;;;;;8.60;7.70;;;;;;;11.93;76.45;99095.88;5011433;28;20210;-65
2023/04/25 06:17:56;;;;;;;8.30;7.53;;;;;;;11.97;76.41;99101.78;5007586;28;20203;-65
2023/04/25 06:20:24;;;;;;;8.43;7.50;;;;;;;12.01;76.19;99109.38;5007972;28;20210;-66
2023/04/25 06:22:52;;;;;;;8.60;7.80;;;;;;;12.03;75.99;99110.13;5003026;28;21030;-64
2023/04/25 06:25:21;;;;;;;9.00;8.00;;;;;;;12.06;76.10;99110.03;5006644;28;20199;-63
2023/04/25 06:27:49;;;;;;;8.57;7.80;;;;;;;12.11;75.96;99116.78;5007034;28;20736;-67
2023/04/25 06:30:18;;;;;;;11.00;8.07;;;;;;;12.13;75.87;99115.84;5008342;28;20706;-64
2023/04/25 06:32:47;;;;;;;8.87;8.03;;;;;;;12.13;75.85;99130.50;5008515;28;20222;-69
2023/04/25 06:35:15;;;;;;;9.67;8.67;;;;;;;12.12;75.65;99134.00;5006742;28;20675;-68
2023/04/25 06:37:43;;;;;;;9.07;8.03;;;;;;;12.10;75.44;99136.59;5005288;28;20289;-69
2023/04/25 06:40:11;;;;;;;8.73;7.67;;;;;;;12.03;75.94;99140.28;5003003;28;20604;-69
2023/04/25 06:42:39;;;;;;;8.57;7.67;;;;;;;11.96;75.88;99128.47;5002702;28;20278;-70
2023/04/25 06:45:08;;;;;;;6.83;6.13;;;;;;;11.89;75.38;99137.28;5005118;28;20616;-69
2023/04/25 06:47:36;;;;;;;7.50;6.80;;;;;;;11.76;76.59;99137.66;5008438;28;20524;-69
2023/04/25 06:50:07;;;;;;;6.43;5.83;;;;;;;11.66;75.77;99133.66;5008625;28;20705;-69
2023/04/25 06:52:35;;;;;;;8.00;5.40;;;;;;;11.55;76.08;99127.97;5003420;28;21829;-69
2023/04/25 06:55:04;;;;;;;6.77;5.80;;;;;;;11.37;75.71;99129.38;5005514;28;20248;-69
2023/04/25 06:57:32;;;;;;;11.10;6.50;;;;;;;11.27;76.76;99125.41;5000541;28;20257;-74
2023/04/25 07:00:00;;;;;;;6.77;6.13;;;;;;;11.40;77.66;99125.88;5003928;28;20578;-62
2023/04/25 07:02:29;;;;;;;12.40;6.33;;;;;;;11.68;77.32;99133.63;5002388;28;20315;-65
2023/04/25 07:04:59;;;;;;;8.77;6.37;;;;;;;11.98;75.93;99116.34;5008903;28;20628;-63
2023/04/25 07:07:30;;;;;;;6.63;6.03;;;;;;;12.28;74.88;99111.94;5006922;28;20213;-62
2023/04/25 07:09:57;;;;;;;6.90;5.70;;;;;;;12.53;73.46;99105.03;5003968;28;20281;-61
2023/04/25 07:12:25;;;;;;;6.00;5.50;;;;;;;12.73;72.22;99108.66;4991446;28;20211;-62
2023/04/25 07:14:53;;;;;;;5.63;5.13;;;;;;;12.96;71.62;99116.44;5005318;28;20211;-64
2023/04/25 07:17:23;;;;;;;5.77;5.07;;;;;;;13.16;69.95;99114.88;5002838;28;20297;-62
2023/04/25 07:19:51;;;;;;;8.97;4.97;;;;;;;13.52;69.53;99123.03;5004740;28;20224;-64
2023/04/25 07:22:19;;;;;;;5.40;4.90;;;;;;;13.86;68.33;99109.59;5007899;28;20206;-63
2023/04/25 07:24:48;;;;;;;5.07;4.57;;;;;;;14.14;66.95;99111.06;5008567;28;20257;-64
2023/04/25 07:27:16;;;;;;;5.10;4.70;;;;;;;14.25;65.83;99120.09;5004803;28;20206;-63
2023/04/25 07:29:44;;;;;;;5.47;4.40;;;;;;;14.23;63.87;99121.88;5005106;28;20234;-63
2023/04/25 07:32:13;;;;;;;5.10;4.60;;;;;;;14.33;64.65;99119.78;5010138;28;20617;-61
2023/04/25 07:34:41;;;;;;;5.37;4.63;;;;;;;14.57;64.49;99119.66;5007536;28;20241;-63
2023/04/25 07:37:10;;;;;;;4.40;4.03;;;;;;;14.60;62.16;99122.13;5001862;28;20203;-61
2023/04/25 07:39:38;;;;;;;5.37;4.87;;;;;;;14.33;62.57;99126.72;5009202;28;20204;-64
2023/04/25 07:42:08;;;;;;;4.80;4.40;;;;;;;14.00;64.01;99124.59;5004963;28;20199;-72
2023/04/25 07:44:38;;;;;;;5.10;4.70;;;;;;;13.85;64.31;99133.81;5008160;28;20848;-74
2023/04/25 07:47:07;;;;;;;5.57;4.57;;;;;;;13.86;64.82;99135.50;5009162;28;20663;-74
2023/04/25 07:49:36;;;;;;;4.50;3.97;;;;;;;13.91;64.35;99135.28;5010863;28;20663;-74
2023/04/25 07:52:05;;;;;;;4.13;3.70;;;;;;;13.91;65.40;99143.91;5011381;28;20226;-75
2023/04/25 07:54:34;;;;;;;6.03;3.83;;;;;;;13.97;64.79;99130.72;5010229;28;20215;-71
2023/04/25 07:57:03;;;;;;;5.10;4.03;;;;;;;13.81;64.45;99129.66;5014142;28;20211;-74
2023/04/25 07:59:32;;;;;;;6.03;4.27;;;;;;;13.67;65.13;99119.84;5009399;28;20218;-71
2023/04/25 08:02:01;;;;;;;4.60;4.03;;;;;;;13.66;64.96;99135.41;5010141;28;20222;-74
2023/04/25 08:04:28;;;;;;;5.20;4.20;;;;;;;13.68;64.58;99128.44;5011255;28;20227;-72
2023/04/25 08:06:57;;;;;;;5.73;4.40;;;;;;;13.72;64.63;99130.84;5008658;28;20385;-73
2023/04/25 08:09:25;;;;;;;5.40;4.37;;;;;;;13.80;63.67;99143.47;5006826;28;20211;-71
2023/04/25 08:11:52;;;;;;;5.90;5.40;;;;;;;13.83;63.92;99137.34;5006610;28;20203;-75
2023/04/25 08:14:21;;;;;;;7.13;6.50;;;;;;;13.80;63.99;99147.81;5007905;28;20215;-73
2023/04/25 08:16:50;;;;;;;6.23;5.73;;;;;;;13.69;63.82;99145.66;5007559;28;20210;-66
2023/04/25 08:19:18;;;;;;;6.50;5.90;;;;;;;13.48;63.93;99143.00;5011630;28;20208;-65
2023/04/25 08:21:45;;;;;;;6.97;6.30;;;;;;;13.31;65.08;99135.03;5007711;28;20207;-64
2023/04/25 08:24:13;;;;;;;6.27;5.67;;;;;;;13.20;65.37;99144.88;5009985;28;20764;-67
2023/04/25 08:26:41;;;;;;;6.10;5.50;;;;;;;13.11;65.38;99140.03;5012244;28;20635;-65
2023/04/25 08:29:09;;;;;;;6.33;5.73;;;;;;;12.97;66.81;99145.72;5007103;28;20262;-64
2023/04/25 08:31:37;;;;;;;5.77;5.33;;;;;;;12.92;67.14;99158.78;5008347;28;20258;-64
2023/04/25 08:34:07;;;;;;;4.33;4.03;;;;;;;12.83;67.57;99161.72;5002128;28;20257;-64
2023/04/25 08:36:35;;;;;;;4.00;3.57;;;;;;;12.67;67.72;99163.16;5004552;28;20322;-64
2023/04/25 08:39:07;;;;;;;3.80;3.50;;;;;;;12.51;67.82;99165.41;5009633;28;20206;-65
2023/04/25 08:41:35;;;;;;;3.77;3.40;;;;;;;12.33;68.20;99165.13;5012304;28;20733;-66
2023/04/25 08:44:04;;;;;;;5.47;3.50;;;;;;;12.24;68.96;99169.75;5010320;28;20214;-63
2023/04/25 08:46:33;;;;;;;3.87;3.47;;;;;;;12.21;69.25;99175.00;5007085;28;20215;-67
2023/04/25 08:49:02;;;;;;;4.53;4.23;;;;;;;12.18;68.45;99167.34;5005793;28;20207;-69
2023/04/25 08:51:33;;;;;;;5.10;4.60;;;;;;;12.16;69.80;99176.91;5009670;28;20667;-67
2023/04/25 08:54:10;;;;;;;4.90;4.40;;;;;;;12.37;69.23;99185.69;5006979;28;20204;-68
2023/04/25 08:57:01;;;;;;;5.20;4.80;;;;;;;12.68;68.53;99191.53;5010875;28;20202;-67
2023/04/25 08:59:30;;;;;;;4.97;4.57;;;;;;;12.92;68.38;99192.41;5009311;28;20577;-66
2023/04/25 09:01:58;;;;;;;4.47;4.07;;;;;;;13.14;65.45;99189.06;5010824;28;20214;-67
2023/04/25 09:04:26;;;;;;;4.97;4.00;;;;;;;13.19;64.83;99198.38;5011216;28;20203;-72
2023/04/25 09:06:56;;;;;;;4.50;3.90;;;;;;;13.18;64.94;99190.66;5011199;28;20199;-68
2023/04/25 09:09:24;;;;;;;3.70;3.40;;;;;;;13.25;64.75;99198.16;5008077;28;20250;-63
2023/04/25 09:11:55;;;;;;;3.67;3.37;;;;;;;13.13;65.09;99195.16;5007152;28;20707;-64
2023/04/25 09:14:25;;;;;;;3.80;3.50;;;;;;;12.92;65.43;99209.66;5005814;28;20689;-63
2023/04/25 09:17:02;;;;;;;3.40;3.10;;;;;;;12.67;66.35;99204.50;5007526;28;20223;-61
2023/04/25 09:19:31;;;;;;;4.60;4.20;;;;;;;12.46;66.25;99209.47;5003763;28;20666;-62
2023/04/25 09:22:09;;;;;;;5.33;4.80;;;;;;;12.26;67.32;99204.09;5006034;28;20226;-64
2023/04/25 09:24:39;;;;;;;5.77;5.10;;;;;;;12.17;67.69;99209.56;5006865;28;20331;-61
2023/04/25 09:27:08;;;;;;;7.87;5.93;;;;;;;12.08;68.46;99206.38;4998253;28;20350;-63
2023/04/25 09:29:37;;;;;;;7.30;6.00;;;;;;;12.15;68.86;99216.50;5003459;28;20211;-60
2023/04/25 09:32:12;;;;;;;6.17;5.63;;;;;;;12.21;68.27;99218.91;4999857;28;20207;-61
2023/04/25 09:34:42;;;;;;;6.53;5.93;;;;;;;12.16;67.90;99216.47;5001633;28;21221;-65
2023/04/25 09:37:18;;;;;;;7.13;6.43;;;;;;;12.06;68.49;99220.22;5003475;28;20269;-60
2023/04/25 09:39:47;;;;;;;6.83;6.23;;;;;;;12.04;68.42;99222.88;5006392;28;20265;-60
2023/04/25 09:42:16;;;;;;;7.10;6.40;;;;;;;12.04;68.66;99233.19;5006504;28;20200;-61
2023/04/25 09:44:45;;;;;;;6.83;6.23;;;;;;;12.02;68.85;99229.81;5015961;28;20210;-63
2023/04/25 09:47:16;;;;;;;7.07;6.47;;;;;;;12.02;69.13;99229.81;5006464;28;20688;-60
2023/04/25 09:49:45;;;;;;;7.57;6.87;;;;;;;12.04;69.27;99235.78;5004580;28;20214;-61
2023/04/25 09:52:17;;;;;;;7.07;6.47;;;;;;;12.04;68.29;99230.63;5003505;28;20203;-61
2023/04/25 09:54:45;;;;;;;7.60;6.90;;;;;;;11.98;68.44;99238.53;5008201;28;20246;-64
2023/04/25 09:57:15;;;;;;;8.10;7.40;;;;;;;11.95;68.54;99241.22;5006946;28;20308;-59
2023/04/25 09:59:48;;;;;;;8.20;7.00;;;;;;;11.98;68.88;99248.88;5004817;28;20641;-63
2023/04/25 10:02:18;;;;;;;8.63;7.90;;;;;;;12.01;68.72;99246.19;5010690;28;20557;-61
2023/04/25 10:04:51;;;;;;;8.67;7.77;;;;;;;11.98;68.23;99230.78;5010425;28;20214;-61
2023/04/25 10:07:25;;;;;;;9.20;8.40;;;;;;;11.96;68.58;99250.63;5007553;28;20199;-61
2023/04/25 10:09:59;;;;;;;10.67;9.13;;;;;;;11.94;68.95;99249.84;5008665;28;20765;-59
2023/04/25 10:12:27;;;;;;;9.10;8.23;;;;;;;11.94;68.63;99243.84;5011740;28;20199;-60
2023/04/25 10:14:55;;;;;;;9.43;8.53;;;;;;;11.87;68.70;99250.09;5009953;28;20250;-60
2023/04/25 10:17:24;;;;;;;12.80;9.43;;;;;;;11.77;69.24;99241.72;5001212;28;20227;-60
2023/04/25 10:19:53;;;;;;;9.27;8.43;;;;;;;11.68;69.71;99244.59;5005119;28;20242;-60
2023/04/25 10:22:31;;;;;;;10.27;9.23;;;;;;;11.66;70.42;99251.50;5010244;28;20294;-60
2023/04/25 10:25:00;;;;;;;10.40;9.50;;;;;;;11.69;70.60;99251.44;5008356;28;20234;-69
2023/04/25 10:27:28;;;;;;;10.00;9.03;;;;;;;11.68;70.64;99242.00;5005117;28;20557;-62
2023/04/25 10:30:10;;;;;;;9.93;9.03;;;;;;;11.65;70.21;99247.25;5008944;28;20210;-62
2023/04/25 10:32:38;;;;;;;10.17;9.27;;;;;;;11.64;70.40;99253.31;4997236;28;20210;-61
2023/04/25 10:35:15;;;;;;;10.83;9.83;;;;;;;11.56;70.83;99251.78;5011076;28;20639;-61
2023/04/25 10:38:04;;;;;;;10.50;9.60;;;;;;;11.54;71.50;99256.13;5011297;28;20273;-61
2023/04/25 10:40:32;;;;;;;10.63;9.63;;;;;;;11.57;71.39;99245.72;5004539;28;20317;-66
2023/04/25 10:43:35;;;;;;;10.57;9.67;;;;;;;11.64;71.17;99245.56;5011055;28;20212;-61
2023/04/25 10:46:05;;;;;;;11.03;9.93;;;;;;;11.66;71.36;99249.78;5008994;28;20611;-62
2023/04/25 10:48:35;;;;;;;10.67;9.67;;;;;;;11.65;70.93;99242.94;5009229;28;20207;-60
2023/04/25 10:51:09;;;;;;;10.17;9.27;;;;;;;11.61;70.79;99246.50;5011139;28;20218;-62
2023/04/25 10:53:39;;;;;;;10.30;9.40;;;;;;;11.59;70.98;99248.25;5008591;28;20210;-64
2023/04/25 10:56:18;;;;;;;9.90;9.10;;;;;;;11.61;71.19;99247.34;5006617;28;20646;-62
2023/04/25 10:58:46;;;;;;;9.47;8.60;;;;;;;11.61;70.79;99252.50;5009323;28;20203;-64
2023/04/25 11:01:21;;;;;;;11.00;9.90;;;;;;;11.64;70.54;99245.56;5009189;28;20229;-60
2023/04/25 11:03:50;;;;;;;10.57;9.57;;;;;;;11.67;71.10;99248.91;5011014;28;20304;-60
2023/04/25 11:06:24;;;;;;;9.93;8.97;;;;;;;11.71;70.84;99247.94;5011129;28;20681;-61
2023/04/25 11:08:53;;;;;;;10.43;9.30;;;;;;;11.71;70.52;99250.50;5011125;28;20662;-62
2023/04/25 11:11:21;;;;;;;10.60;9.60;;;;;;;11.71;71.11;99258.25;5009490;28;20681;-62
2023/04/25 11:13:50;;;;;;;10.37;9.37;;;;;;;11.81;70.57;99258.81;5015092;28;20609;-61
2023/04/25 11:16:18;;;;;;;10.03;9.23;;;;;;;11.88;70.76;99255.19;5014669;28;20231;-61
2023/04/25 11:18:57;;;;;;;10.50;9.60;;;;;;;11.92;70.98;99256.78;5014902;28;20225;-61
2023/04/25 11:21:27;;;;;;;10.07;9.23;;;;;;;11.97;70.21;99254.94;5012570;28;20659;-60
2023/04/25 11:23:57;;;;;;;9.97;9.13;;;;;;;12.00;68.98;99244.53;5012423;28;20239;-61
2023/04/25 11:26:25;;;;;;;9.93;8.93;;;;;;;11.98;68.19;99251.44;5008950;28;20663;-62
2023/04/25 11:28:58;;;;;;;8.60;7.80;;;;;;;11.93;68.19;99255.91;5008210;28;20207;-61
2023/04/25 11:31:26;;;;;;;8.47;7.80;;;;;;;11.90;67.62;99253.41;5007937;28;20199;-70
2023/04/25 11:33:55;;;;;;;9.00;8.20;;;;;;;11.89;68.57;99256.88;5009276;28;21922;-66
2023/04/25 11:36:25;;;;;;;8.60;7.80;;;;;;;11.90;68.33;99258.59;4996805;28;20294;-60
2023/04/25 11:38:54;;;;;;;8.50;7.67;;;;;;;11.94;67.88;99249.00;5013967;28;20208;-59